Time,TemperatureF,DewpointF,PressureIn,WindDirection,WindDirectionDegrees,WindSpeedMPH,WindSpeedGustMPH,Humidity,HourlyPrecipIn,Conditions,Clouds,dailyrainin,SoftwareType,DateUTC
2013-02-23 00:01:00,14.0,12.0,-100.00,SSW,203,1.0,-999.0,92,-99.99,,,0.00,,2013-02-23 07:01:00,
2013-02-23 00:11:00,14.0,12.0,-100.00,SSW,203,1.0,-999.0,92,-99.99,,,0.00,,2013-02-23 07:11:00,
2013-02-23 01:41:00,14.0,13.0,-100.00,WSW,240,0.0,-999.0,95,-99.99,,,0.00,,2013-02-23 08:41:00,
2013-02-23 01:52:00,14.0,13.0,-100.00,WSW,240,0.0,-999.0,95,-99.99,,,0.00,,2013-02-23 08:52:00,
2013-02-23 02:01:00,14.0,13.0,-100.00,WSW,240,0.0,-999.0,95,-99.99,,,0.00,,2013-02-23 09:01:00,
2013-02-23 02:11:00,14.0,13.0,-100.00,WSW,240,0.0,-999.0,95,-99.99,,,0.00,,2013-02-23 09:11:00,
2013-02-23 03:41:00,18.0,16.0,-100.00,WSW,243,1.0,-999.0,91,-99.99,,,0.00,,2013-02-23 10:41:00,
2013-02-23 03:52:00,18.0,16.0,-100.00,WSW,243,1.0,-999.0,91,-99.99,,,0.00,,2013-02-23 10:52:00,
2013-02-23 04:02:00,18.0,16.0,-100.00,WSW,243,1.0,-999.0,91,-99.99,,,0.00,,2013-02-23 11:02:00,
2013-02-23 04:11:00,18.0,16.0,-100.00,WSW,243,1.0,-999.0,91,-99.99,,,0.00,,2013-02-23 11:11:00,
2013-02-23 05:42:00,18.0,17.0,-100.00,NNW,335,2.0,-999.0,93,-99.99,,,0.00,,2013-02-23 12:42:00,
2013-02-23 05:52:00,18.0,17.0,-100.00,NNW,335,2.0,-999.0,93,-99.99,,,0.00,,2013-02-23 12:52:00,
2013-02-23 06:01:00,18.0,17.0,-100.00,NNW,335,2.0,-999.0,93,-99.99,,,0.00,,2013-02-23 13:01:00,
2013-02-23 06:11:00,18.0,17.0,-100.00,NNW,335,2.0,-999.0,93,-99.99,,,0.00,,2013-02-23 13:11:00,
2013-02-23 07:41:00,21.0,19.0,-100.00,WSW,254,3.0,-999.0,91,-99.99,,,0.00,,2013-02-23 14:41:00,
2013-02-23 07:52:00,21.0,19.0,-100.00,WSW,254,3.0,-999.0,91,-99.99,,,0.00,,2013-02-23 14:52:00,
2013-02-23 08:01:00,21.0,19.0,-100.00,WSW,254,3.0,-999.0,91,-99.99,,,0.00,,2013-02-23 15:01:00,
2013-02-23 08:11:00,21.0,19.0,-100.00,WSW,254,3.0,-999.0,91,-99.99,,,0.00,,2013-02-23 15:11:00,
2013-02-23 09:00:00,24.0,22.0,-100.00,NNW,330,3.0,-999.0,90,-99.99,,,0.00,,2013-02-23 16:00:00,
2013-02-23 09:31:00,24.0,22.0,-100.00,NNW,330,3.0,-999.0,90,-99.99,,,0.00,,2013-02-23 16:31:00,
2013-02-23 09:42:00,24.0,22.0,-100.00,NNW,330,3.0,-999.0,90,-99.99,,,0.00,,2013-02-23 16:42:00,
2013-02-23 09:52:00,24.0,22.0,-100.00,NNW,330,3.0,-999.0,90,-99.99,,,0.00,,2013-02-23 16:52:00,
2013-02-23 11:00:00,25.0,25.0,-100.00,North,2,7.0,-999.0,100,-99.99,,,0.00,,2013-02-23 18:00:00,
2013-02-23 11:31:00,25.0,25.0,-100.00,North,2,7.0,-999.0,100,-99.99,,,0.00,,2013-02-23 18:31:00,
2013-02-23 11:41:00,25.0,25.0,-100.00,North,2,7.0,-999.0,100,-99.99,,,0.00,,2013-02-23 18:41:00,
2013-02-23 11:52:00,25.0,25.0,-100.00,North,2,7.0,-999.0,100,-99.99,,,0.00,,2013-02-23 18:52:00,
2013-02-23 13:00:00,23.0,22.0,-100.00,WNW,297,3.0,-999.0,94,-99.99,,,0.00,,2013-02-23 20:00:00,
2013-02-23 13:31:00,23.0,22.0,-100.00,WNW,297,3.0,-999.0,94,-99.99,,,0.00,,2013-02-23 20:31:00,
2013-02-23 13:41:00,23.0,22.0,-100.00,WNW,297,3.0,-999.0,94,-99.99,,,0.00,,2013-02-23 20:41:00,
2013-02-23 13:52:00,23.0,22.0,-100.00,WNW,297,3.0,-999.0,94,-99.99,,,0.00,,2013-02-23 20:52:00,
2013-02-23 15:00:00,19.0,16.0,-100.00,North,349,13.0,-999.0,86,-99.99,,,0.00,,2013-02-23 22:00:00,
2013-02-23 15:31:00,19.0,16.0,-100.00,North,349,13.0,-999.0,86,-99.99,,,0.00,,2013-02-23 22:31:00,
2013-02-23 15:41:00,19.0,16.0,-100.00,North,349,13.0,-999.0,86,-99.99,,,0.00,,2013-02-23 22:41:00,
2013-02-23 15:52:00,19.0,16.0,-100.00,North,349,13.0,-999.0,86,-99.99,,,0.00,,2013-02-23 22:52:00,
2013-02-23 17:00:00,18.0,17.0,-100.00,NW,310,5.0,-999.0,94,-99.99,,,0.00,,2013-02-24 00:00:00,
2013-02-23 17:32:00,18.0,17.0,-100.00,NW,310,5.0,-999.0,94,-99.99,,,0.00,,2013-02-24 00:32:00,
2013-02-23 17:42:00,18.0,17.0,-100.00,NW,310,5.0,-999.0,94,-99.99,,,0.00,,2013-02-24 00:42:00,
2013-02-23 17:52:00,18.0,17.0,-100.00,NW,310,5.0,-999.0,94,-99.99,,,0.00,,2013-02-24 00:52:00,
2013-02-23 19:00:00,17.0,14.0,-100.00,East,98,3.0,-999.0,86,-99.99,,,0.00,,2013-02-24 02:00:00,
2013-02-23 19:32:00,17.0,14.0,-100.00,East,98,3.0,-999.0,86,-99.99,,,0.00,,2013-02-24 02:32:00,
2013-02-23 19:41:00,17.0,14.0,-100.00,East,98,3.0,-999.0,86,-99.99,,,0.00,,2013-02-24 02:41:00,
2013-02-23 19:52:00,17.0,14.0,-100.00,East,98,3.0,-999.0,86,-99.99,,,0.00,,2013-02-24 02:52:00,
2013-02-23 21:00:00,18.0,13.0,-100.00,SSW,203,0.0,-999.0,81,-99.99,,,0.00,,2013-02-24 04:00:00,
2013-02-23 21:31:00,18.0,13.0,-100.00,SSW,203,0.0,-999.0,81,-99.99,,,0.00,,2013-02-24 04:31:00,
2013-02-23 21:41:00,18.0,13.0,-100.00,SSW,203,0.0,-999.0,81,-99.99,,,0.00,,2013-02-24 04:41:00,
2013-02-23 21:52:00,18.0,13.0,-100.00,SSW,203,0.0,-999.0,81,-99.99,,,0.00,,2013-02-24 04:52:00,
2013-02-23 23:00:00,18.0,14.0,-100.00,West,279,3.0,-999.0,80,-99.99,,,0.00,,2013-02-24 06:00:00,
2013-02-23 23:31:00,18.0,14.0,-100.00,West,279,3.0,-999.0,80,-99.99,,,0.00,,2013-02-24 06:31:00,
2013-02-23 23:41:00,18.0,14.0,-100.00,West,279,3.0,-999.0,80,-99.99,,,0.00,,2013-02-24 06:41:00,
2013-02-23 23:52:00,18.0,14.0,-100.00,West,279,3.0,-999.0,80,-99.99,,,0.00,,2013-02-24 06:52:00,